Time;durP1;ratioP1;P1;durP2;ratioP2;P2;SDS_P1;SDS_P2;PMS_P1;PMS_P2;Temp;Humidity;BMP_temperature;BMP_pressure;BME280_temperature;BME280_humidity;BME280_pressure;Samples;Min_cycle;Max_cycle;Signal;HPM_P1;HPM_P2
2022/03/02 00:02:23;;;;;;;26.02;14.02;;;7.90;99.90;;;;;;5033468;28;20524;-75
2022/03/02 00:04:49;;;;;;;21.20;12.35;;;7.90;99.90;;;;;;5033245;28;20021;-76
2022/03/02 00:07:15;;;;;;;20.40;13.93;;;7.90;99.90;;;;;;5033683;28;20022;-76
2022/03/02 00:09:41;;;;;;;23.88;13.18;;;7.90;99.90;;;;;;5033251;28;20030;-75
2022/03/02 00:12:07;;;;;;;20.42;12.82;;;7.90;99.90;;;;;;5034032;28;20068;-75
2022/03/02 00:14:32;;;;;;;20.73;12.00;;;8.00;99.90;;;;;;5032679;28;20041;-75
2022/03/02 00:16:58;;;;;;;20.30;12.32;;;7.90;99.90;;;;;;5033525;28;20537;-75
2022/03/02 00:19:25;;;;;;;22.77;12.68;;;8.00;99.90;;;;;;5032449;28;20064;-76
2022/03/02 00:21:50;;;;;;;19.02;12.23;;;8.00;99.90;;;;;;5032994;28;20053;-75
2022/03/02 00:24:16;;;;;;;19.23;12.10;;;8.00;99.90;;;;;;5049540;28;20048;-75
2022/03/02 00:26:42;;;;;;;18.88;11.02;;;7.90;99.90;;;;;;5029811;28;20030;-76
2022/03/02 00:29:07;;;;;;;19.10;12.63;;;8.10;99.90;;;;;;5030261;28;20439;-75
2022/03/02 00:31:33;;;;;;;18.38;11.77;;;8.20;99.90;;;;;;5032217;28;20355;-76
2022/03/02 00:33:59;;;;;;;20.13;13.68;;;8.40;99.90;;;;;;5032789;28;20030;-76
2022/03/02 00:36:25;;;;;;;22.35;14.43;;;8.40;99.90;;;;;;5033121;28;20021;-76
2022/03/02 00:38:50;;;;;;;26.92;15.23;;;8.20;99.90;;;;;;5033567;28;20026;-76
2022/03/02 00:41:16;;;;;;;23.30;15.02;;;8.10;99.90;;;;;;5032684;28;20044;-77
2022/03/02 00:43:42;;;;;;;26.52;14.52;;;8.10;99.90;;;;;;5032406;28;20033;-76
2022/03/02 00:46:08;;;;;;;26.60;14.93;;;8.10;99.90;;;;;;5033389;28;20041;-76
2022/03/02 00:48:34;;;;;;;20.55;10.70;;;8.20;99.90;;;;;;5032605;28;20053;-76
2022/03/02 00:51:00;;;;;;;24.92;12.98;;;8.70;99.90;;;;;;5032909;28;20060;-76
2022/03/02 00:53:26;;;;;;;24.25;13.45;;;8.90;99.90;;;;;;5032771;28;20021;-77
2022/03/02 00:55:52;;;;;;;22.38;14.02;;;8.90;99.90;;;;;;5032491;28;20036;-77
2022/03/02 00:58:18;;;;;;;29.23;16.35;;;8.90;99.90;;;;;;5032582;28;20025;-76
2022/03/02 01:00:43;;;;;;;31.88;18.38;;;8.70;99.90;;;;;;5032311;28;20045;-76
2022/03/02 01:03:09;;;;;;;32.35;18.65;;;8.50;99.90;;;;;;5031914;28;20013;-76
2022/03/02 01:05:35;;;;;;;30.13;18.83;;;8.30;99.90;;;;;;5032677;28;20024;-76
2022/03/02 01:08:01;;;;;;;29.20;19.05;;;8.10;99.90;;;;;;5032049;28;20044;-77
2022/03/02 01:10:27;;;;;;;26.65;17.98;;;8.30;99.90;;;;;;5031977;28;20398;-77
2022/03/02 01:12:53;;;;;;;24.38;16.77;;;8.30;99.90;;;;;;5031495;28;20117;-76
2022/03/02 01:15:19;;;;;;;32.33;17.88;;;8.40;99.90;;;;;;5031366;28;20025;-76
2022/03/02 01:17:45;;;;;;;26.75;17.45;;;8.30;99.90;;;;;;5031982;28;20040;-76
2022/03/02 01:20:12;;;;;;;27.00;16.40;;;8.40;99.90;;;;;;5031595;28;20520;-75
2022/03/02 01:22:38;;;;;;;25.13;14.18;;;8.40;99.90;;;;;;5031275;28;20026;-75
2022/03/02 01:25:06;;;;;;;22.45;13.70;;;8.60;99.90;;;;;;5031705;28;20087;-75
2022/03/02 01:27:32;;;;;;;21.10;13.63;;;8.70;99.90;;;;;;5031329;28;20029;-76
2022/03/02 01:29:57;;;;;;;27.63;15.07;;;8.80;99.90;;;;;;5032138;28;20034;-77
2022/03/02 01:32:24;;;;;;;24.58;15.55;;;8.80;99.90;;;;;;5031407;28;20475;-76
2022/03/02 01:34:50;;;;;;;27.65;17.77;;;8.80;99.90;;;;;;5030755;28;20025;-76
2022/03/02 01:37:16;;;;;;;30.48;20.05;;;8.90;99.90;;;;;;5030682;28;20467;-76
2022/03/02 01:39:43;;;;;;;31.02;18.45;;;8.80;99.90;;;;;;5030529;28;20021;-77
2022/03/02 01:42:09;;;;;;;28.63;19.20;;;8.70;99.90;;;;;;5032153;28;20033;-76
2022/03/02 01:44:36;;;;;;;31.73;21.50;;;8.70;99.90;;;;;;5030243;28;20022;-77
2022/03/02 01:47:04;;;;;;;35.35;21.45;;;8.70;99.90;;;;;;5030508;28;20167;-74
2022/03/02 01:49:30;;;;;;;32.20;22.00;;;8.70;99.90;;;;;;5030281;28;20034;-76
2022/03/02 01:51:55;;;;;;;35.45;22.65;;;8.70;99.90;;;;;;5029924;28;20029;-76
2022/03/02 01:54:21;;;;;;;31.77;23.17;;;8.70;99.90;;;;;;5031482;28;20441;-71
2022/03/02 01:56:48;;;;;;;33.25;23.17;;;8.40;99.90;;;;;;5030618;28;20030;-76
2022/03/02 01:59:14;;;;;;;32.97;23.25;;;8.50;99.90;;;;;;5029723;28;20095;-76
2022/03/02 02:01:40;;;;;;;30.85;22.00;;;8.50;99.90;;;;;;5030314;28;20405;-76
2022/03/02 02:04:06;;;;;;;30.58;19.17;;;8.50;99.90;;;;;;5021608;28;20538;-76
2022/03/02 02:06:32;;;;;;;23.67;15.25;;;8.70;99.90;;;;;;5031078;28;20139;-76
2022/03/02 02:09:04;;;;;;;23.15;11.82;;;8.90;99.90;;;;;;5030582;28;20112;-75
2022/03/02 02:11:31;;;;;;;18.08;10.38;;;9.10;99.90;;;;;;5029549;28;20029;-76
2022/03/02 02:13:57;;;;;;;21.10;11.02;;;9.30;99.90;;;;;;5028987;28;20025;-75
2022/03/02 02:16:23;;;;;;;21.40;11.27;;;9.40;99.90;;;;;;5029321;28;20021;-76
2022/03/02 02:18:55;;;;;;;18.55;11.02;;;9.50;99.90;;;;;;5029380;28;20478;-76
2022/03/02 02:21:21;;;;;;;17.98;10.52;;;9.50;99.90;;;;;;5031321;28;20030;-76
2022/03/02 02:23:48;;;;;;;19.27;10.70;;;9.50;99.90;;;;;;5028899;28;20021;-75
2022/03/02 02:26:14;;;;;;;18.17;11.25;;;9.50;99.90;;;;;;5029446;28;20039;-76
2022/03/02 02:28:40;;;;;;;21.13;11.45;;;9.50;99.90;;;;;;5028642;28;22166;-76
2022/03/02 02:31:09;;;;;;;18.42;11.45;;;9.50;99.90;;;;;;5028897;28;20041;-75
2022/03/02 02:33:35;;;;;;;17.65;11.57;;;9.50;99.90;;;;;;5030305;28;20039;-76
2022/03/02 02:36:01;;;;;;;18.08;11.00;;;9.60;99.90;;;;;;5030338;28;20497;-76
2022/03/02 02:38:27;;;;;;;17.85;11.02;;;9.60;99.90;;;;;;5028057;28;20017;-76
2022/03/02 02:40:53;;;;;;;21.60;11.30;;;9.50;99.90;;;;;;5028309;28;20462;-76
2022/03/02 02:43:21;;;;;;;19.23;12.00;;;9.50;99.90;;;;;;5028248;28;20018;-76
2022/03/02 02:45:47;;;;;;;20.38;11.82;;;9.50;99.90;;;;;;5024916;28;20032;-76
2022/03/02 02:48:13;;;;;;;17.17;11.43;;;9.40;99.90;;;;;;5031671;28;20046;-75
2022/03/02 02:50:39;;;;;;;19.40;11.82;;;9.40;99.90;;;;;;5027991;28;20387;-75
2022/03/02 02:53:11;;;;;;;18.00;11.68;;;9.30;99.90;;;;;;5027134;28;20042;-76
2022/03/02 02:55:38;;;;;;;19.60;12.43;;;9.30;99.90;;;;;;5027949;28;20108;-76
2022/03/02 02:58:05;;;;;;;20.17;12.02;;;9.20;99.90;;;;;;5028298;28;20462;-75
2022/03/02 03:00:34;;;;;;;20.67;12.07;;;9.10;99.90;;;;;;5029018;28;20454;-76
2022/03/02 03:03:00;;;;;;;20.20;12.77;;;9.00;99.90;;;;;;5029402;28;20049;-75
2022/03/02 03:05:31;;;;;;;19.50;11.63;;;9.00;99.90;;;;;;5027696;28;20029;-76
2022/03/02 03:07:59;;;;;;;21.52;12.07;;;9.00;99.90;;;;;;5027503;28;20430;-76
2022/03/02 03:10:25;;;;;;;19.55;11.15;;;8.90;99.90;;;;;;5027991;28;20034;-76
2022/03/02 03:12:52;;;;;;;20.83;11.43;;;9.00;99.90;;;;;;5027096;28;20026;-76
2022/03/02 03:15:21;;;;;;;16.52;11.32;;;9.00;99.90;;;;;;5031007;28;20112;-76
2022/03/02 03:17:47;;;;;;;20.95;11.80;;;9.10;99.90;;;;;;5028310;28;20060;-76
2022/03/02 03:20:16;;;;;;;21.33;12.43;;;9.00;99.90;;;;;;5026507;28;20041;-76
2022/03/02 03:22:41;;;;;;;17.73;11.45;;;9.10;99.90;;;;;;5029838;28;20025;-76
2022/03/02 03:25:12;;;;;;;17.83;11.07;;;9.00;99.90;;;;;;5026523;28;20038;-76
2022/03/02 03:27:40;;;;;;;18.33;11.95;;;8.90;99.90;;;;;;5029223;28;20530;-75
2022/03/02 03:30:07;;;;;;;20.27;11.00;;;8.90;99.90;;;;;;5030293;28;20034;-76
2022/03/02 03:32:34;;;;;;;18.38;11.18;;;8.90;99.90;;;;;;5027812;28;20052;-76
2022/03/02 03:35:00;;;;;;;22.58;11.88;;;8.80;99.90;;;;;;5027985;28;20030;-76
2022/03/02 03:37:27;;;;;;;18.20;11.18;;;8.90;99.90;;;;;;5027971;28;20390;-76
2022/03/02 03:39:52;;;;;;;21.33;11.48;;;8.80;99.90;;;;;;5028019;28;20422;-75
2022/03/02 03:42:18;;;;;;;15.23;10.93;;;8.70;99.90;;;;;;5031304;28;20026;-76
2022/03/02 03:44:44;;;;;;;16.40;11.68;;;8.80;99.90;;;;;;5029939;28;20514;-75
2022/03/02 03:47:10;;;;;;;15.77;10.77;;;8.70;99.90;;;;;;5025530;28;20119;-76
2022/03/02 03:49:36;;;;;;;18.88;11.40;;;8.70;99.90;;;;;;5026037;28;20056;-76
2022/03/02 03:52:01;;;;;;;18.98;10.98;;;8.80;99.90;;;;;;5027213;28;20040;-75
2022/03/02 03:54:27;;;;;;;21.13;11.98;;;8.70;99.90;;;;;;5028113;28;20053;-76
2022/03/02 03:56:53;;;;;;;17.60;10.80;;;8.70;99.90;;;;;;5027173;28;20390;-76
2022/03/02 03:59:19;;;;;;;17.50;11.77;;;8.70;99.90;;;;;;5027096;28;20041;-76
2022/03/02 04:01:44;;;;;;;19.52;12.40;;;8.70;99.90;;;;;;5027615;28;20037;-75
2022/03/02 04:04:10;;;;;;;20.20;11.55;;;8.70;99.90;;;;;;5027449;28;20022;-76
2022/03/02 04:06:36;;;;;;;22.33;11.98;;;8.60;99.90;;;;;;5028669;28;20033;-76
2022/03/02 04:09:02;;;;;;;18.25;12.18;;;8.60;99.90;;;;;;5028832;28;20025;-75
2022/03/02 04:11:29;;;;;;;16.83;10.82;;;8.50;99.90;;;;;;5027618;28;20061;-76
2022/03/02 04:13:57;;;;;;;20.85;12.15;;;8.60;99.90;;;;;;5027432;28;20029;-76
2022/03/02 04:16:23;;;;;;;19.73;11.70;;;8.60;99.90;;;;;;5027272;28;20029;-75
2022/03/02 04:18:49;;;;;;;23.27;12.02;;;8.50;99.90;;;;;;5027452;28;20033;-76
2022/03/02 04:21:15;;;;;;;21.30;11.25;;;8.50;99.90;;;;;;5029862;28;20041;-76
2022/03/02 04:23:41;;;;;;;19.33;11.55;;;8.50;99.90;;;;;;5027267;28;20113;-75
2022/03/02 04:26:07;;;;;;;17.77;11.27;;;8.50;99.90;;;;;;5029624;28;20037;-75
2022/03/02 04:28:33;;;;;;;15.80;10.85;;;8.40;99.90;;;;;;5030485;28;20029;-76
2022/03/02 04:30:59;;;;;;;16.42;11.10;;;8.40;99.90;;;;;;5030546;28;20040;-76
2022/03/02 04:33:24;;;;;;;16.65;11.18;;;8.40;99.90;;;;;;5033227;28;20022;-75
2022/03/02 04:35:50;;;;;;;17.42;10.60;;;8.40;99.90;;;;;;5032446;28;20486;-76
2022/03/02 04:38:16;;;;;;;16.70;10.95;;;8.40;99.90;;;;;;5030472;28;20037;-76
2022/03/02 04:40:42;;;;;;;17.23;10.65;;;8.30;99.90;;;;;;5030535;28;20033;-76
2022/03/02 04:43:08;;;;;;;16.35;10.50;;;8.40;99.90;;;;;;5030297;28;20057;-77
2022/03/02 04:45:34;;;;;;;16.75;10.65;;;8.40;99.90;;;;;;5032277;28;20028;-76
2022/03/02 04:48:00;;;;;;;15.02;11.25;;;8.40;99.90;;;;;;5046689;28;20049;-76
2022/03/02 04:50:27;;;;;;;15.57;10.40;;;8.40;99.90;;;;;;5030235;28;20101;-76
2022/03/02 04:52:54;;;;;;;19.95;10.52;;;8.40;99.90;;;;;;5032241;28;20049;-76
2022/03/02 04:55:20;;;;;;;19.75;10.25;;;8.40;99.90;;;;;;5030433;28;20026;-76
2022/03/02 04:57:47;;;;;;;18.52;11.52;;;8.40;99.90;;;;;;5031008;28;20029;-76
2022/03/02 05:00:21;;;;;;;23.05;11.15;;;8.40;99.90;;;;;;5033298;28;20033;-76
2022/03/02 05:02:47;;;;;;;21.88;11.65;;;8.40;99.90;;;;;;5030842;28;20132;-76
2022/03/02 05:05:16;;;;;;;17.00;10.43;;;8.40;99.90;;;;;;5030180;28;20053;-76
2022/03/02 05:07:43;;;;;;;17.90;11.15;;;8.30;99.90;;;;;;5030236;28;20037;-76
2022/03/02 05:10:11;;;;;;;18.25;11.75;;;8.40;99.90;;;;;;5030391;28;20037;-76
2022/03/02 05:12:39;;;;;;;18.02;10.13;;;8.40;99.90;;;;;;5031993;28;20100;-76
2022/03/02 05:15:07;;;;;;;19.65;10.75;;;8.40;99.90;;;;;;5032713;28;20032;-76
2022/03/02 05:17:34;;;;;;;15.25;9.23;;;8.40;99.90;;;;;;5028212;28;20041;-76
2022/03/02 05:20:00;;;;;;;18.88;10.77;;;8.40;99.90;;;;;;5029911;28;20441;-76
2022/03/02 05:22:25;;;;;;;18.20;10.70;;;8.50;99.90;;;;;;5029878;28;20231;-76
2022/03/02 05:24:51;;;;;;;18.30;9.75;;;8.60;99.90;;;;;;5030405;28;20458;-76
2022/03/02 05:27:17;;;;;;;17.67;9.57;;;8.60;99.90;;;;;;5033404;28;20018;-75
2022/03/02 05:29:43;;;;;;;16.00;10.20;;;8.60;99.90;;;;;;5029968;28;20033;-76
2022/03/02 05:32:09;;;;;;;17.52;10.23;;;8.70;99.90;;;;;;5029482;28;20496;-76
2022/03/02 05:34:35;;;;;;;20.45;10.32;;;8.80;99.90;;;;;;5029906;28;20025;-76
2022/03/02 05:37:02;;;;;;;17.23;10.32;;;8.80;99.90;;;;;;5029294;28;20540;-76
2022/03/02 05:39:28;;;;;;;20.60;10.52;;;8.80;99.90;;;;;;5031805;28;20044;-76
2022/03/02 05:41:54;;;;;;;15.43;9.73;;;8.80;99.90;;;;;;5030419;28;20037;-76
2022/03/02 05:44:20;;;;;;;18.45;9.82;;;8.90;99.90;;;;;;5029546;28;20018;-75
2022/03/02 05:46:46;;;;;;;20.35;9.55;;;8.90;99.90;;;;;;5029168;28;20033;-75
2022/03/02 05:49:13;;;;;;;15.63;9.55;;;8.90;99.90;;;;;;5029285;28;20065;-75
2022/03/02 05:51:39;;;;;;;16.15;10.80;;;8.90;99.90;;;;;;5030244;28;20593;-76
2022/03/02 05:54:08;;;;;;;16.42;9.32;;;8.90;99.90;;;;;;5031262;28;20402;-75
2022/03/02 05:56:34;;;;;;;14.10;8.93;;;9.00;99.90;;;;;;5029183;28;20112;-76
2022/03/02 05:59:00;;;;;;;14.80;8.88;;;9.10;99.90;;;;;;5029075;28;20406;-75
2022/03/02 06:01:25;;;;;;;15.80;8.95;;;9.10;99.90;;;;;;5028931;28;20040;-75
2022/03/02 06:03:52;;;;;;;15.60;9.23;;;9.10;99.90;;;;;;5028742;28;20053;-76
2022/03/02 06:06:18;;;;;;;18.98;9.02;;;9.00;99.90;;;;;;5032960;28;20017;-76
2022/03/02 06:08:45;;;;;;;19.55;9.77;;;9.10;99.90;;;;;;5029119;28;20773;-76
2022/03/02 06:11:11;;;;;;;14.15;9.20;;;9.10;99.90;;;;;;5029015;28;20053;-76
2022/03/02 06:13:37;;;;;;;17.60;9.10;;;9.10;99.90;;;;;;5027466;28;20458;-76
2022/03/02 06:16:03;;;;;;;17.67;10.02;;;9.10;99.90;;;;;;5029042;28;20402;-75
2022/03/02 06:18:30;;;;;;;14.85;8.93;;;9.20;99.90;;;;;;5030927;28;20436;-76
2022/03/02 06:21:02;;;;;;;15.68;9.05;;;9.20;99.90;;;;;;5030284;28;20029;-75
2022/03/02 06:23:29;;;;;;;12.93;8.68;;;9.20;99.90;;;;;;5028776;28;20034;-75
2022/03/02 06:25:55;;;;;;;20.90;9.27;;;9.20;99.90;;;;;;5028658;28;20513;-76
2022/03/02 06:28:21;;;;;;;14.95;9.20;;;9.20;99.90;;;;;;5028676;28;20026;-76
2022/03/02 06:30:48;;;;;;;14.75;9.13;;;9.20;99.90;;;;;;5028769;28;20108;-76
2022/03/02 06:33:18;;;;;;;16.15;9.40;;;9.20;99.90;;;;;;5031860;28;20025;-76
2022/03/02 06:35:48;;;;;;;14.23;9.10;;;9.20;99.90;;;;;;5028993;28;20069;-77
2022/03/02 06:38:14;;;;;;;17.90;10.20;;;9.20;99.90;;;;;;5030156;28;20068;-76
2022/03/02 06:41:11;;;;;;;15.02;9.43;;;9.30;99.90;;;;;;5030294;28;20053;-76
2022/03/02 06:43:50;;;;;;;19.20;9.23;;;9.30;99.90;;;;;;5025384;28;20040;-76
2022/03/02 06:46:29;;;;;;;15.57;9.05;;;9.30;99.90;;;;;;5029797;28;20041;-76
2022/03/02 06:49:13;;;;;;;14.98;8.63;;;9.30;99.90;;;;;;5029572;28;20107;-76
2022/03/02 06:51:43;;;;;;;14.75;9.55;;;9.30;99.90;;;;;;5030127;28;20033;-76
2022/03/02 06:54:12;;;;;;;13.20;8.02;;;9.40;99.90;;;;;;5030339;28;20398;-76
2022/03/02 06:56:50;;;;;;;15.95;8.52;;;9.40;99.90;;;;;;5028856;28;20395;-76
2022/03/02 06:59:28;;;;;;;14.55;9.10;;;9.40;99.90;;;;;;5028557;28;20041;-87
2022/03/02 07:01:59;;;;;;;14.57;9.05;;;9.50;99.90;;;;;;5022324;28;20043;-76
2022/03/02 07:04:26;;;;;;;11.68;8.40;;;9.40;99.90;;;;;;5028186;28;20052;-76
2022/03/02 07:06:53;;;;;;;13.43;7.47;;;9.50;99.90;;;;;;5027933;28;20414;-76
2022/03/02 07:09:20;;;;;;;15.48;8.43;;;9.40;99.90;;;;;;5031443;28;20030;-76
2022/03/02 07:11:47;;;;;;;15.75;8.60;;;9.50;99.90;;;;;;5028864;28;20017;-75
2022/03/02 07:14:15;;;;;;;10.88;7.65;;;9.50;99.90;;;;;;5028214;28;20052;-76
2022/03/02 07:16:43;;;;;;;15.45;8.05;;;9.50;99.90;;;;;;5028114;28;20033;-76
2022/03/02 07:19:10;;;;;;;13.88;7.90;;;9.50;99.90;;;;;;5027710;28;20033;-76
2022/03/02 07:21:39;;;;;;;13.90;8.18;;;9.50;99.90;;;;;;5029533;28;20128;-76
2022/03/02 07:24:19;;;;;;;15.40;8.10;;;9.50;99.90;;;;;;5029185;28;20112;-76
2022/03/02 07:26:50;;;;;;;12.95;8.00;;;9.60;99.90;;;;;;5030283;28;20037;-76
2022/03/02 07:29:18;;;;;;;11.52;8.27;;;9.60;99.90;;;;;;5029314;28;20030;-76
2022/03/02 07:31:45;;;;;;;13.88;7.95;;;9.60;99.90;;;;;;5030291;28;20380;-77
2022/03/02 07:34:13;;;;;;;15.48;8.13;;;9.50;99.90;;;;;;5030066;28;20040;-76
2022/03/02 07:36:40;;;;;;;16.15;9.10;;;9.50;99.90;;;;;;5029987;28;20033;-75
2022/03/02 07:39:09;;;;;;;16.27;8.15;;;9.50;99.90;;;;;;5031108;28;20083;-74
2022/03/02 07:41:36;;;;;;;16.33;8.90;;;9.50;99.90;;;;;;5029607;28;20033;-75
2022/03/02 07:44:03;;;;;;;16.05;8.55;;;9.50;99.90;;;;;;5029627;28;20026;-75
2022/03/02 07:46:29;;;;;;;12.63;8.60;;;9.50;99.90;;;;;;5030147;28;20045;-74
2022/03/02 07:48:56;;;;;;;15.55;8.48;;;9.50;99.90;;;;;;5030077;28;20045;-74
2022/03/02 07:51:24;;;;;;;15.52;8.55;;;9.60;99.90;;;;;;5030517;28;20021;-75
2022/03/02 07:53:51;;;;;;;15.50;8.02;;;9.60;99.90;;;;;;5030444;28;20036;-74
2022/03/02 07:56:19;;;;;;;15.60;8.48;;;9.70;99.90;;;;;;5029743;28;20030;-74
2022/03/02 07:58:45;;;;;;;20.52;9.15;;;9.70;99.90;;;;;;5029487;28;20017;-75
2022/03/02 08:01:18;;;;;;;16.65;8.55;;;9.70;99.90;;;;;;5033677;28;20029;-75
2022/03/02 08:03:44;;;;;;;16.60;9.13;;;9.80;99.90;;;;;;5034044;28;20437;-75
2022/03/02 08:06:11;;;;;;;15.40;8.43;;;9.80;99.90;;;;;;5034789;28;20033;-75
2022/03/02 08:08:38;;;;;;;16.80;8.85;;;9.80;99.90;;;;;;5033197;28;20521;-74
2022/03/02 08:11:05;;;;;;;14.60;8.25;;;9.90;99.90;;;;;;5033550;28;20492;-75
2022/03/02 08:13:33;;;;;;;16.73;9.30;;;9.90;99.90;;;;;;5033531;28;20379;-75
2022/03/02 08:15:59;;;;;;;13.65;8.30;;;10.00;99.90;;;;;;5025605;28;20036;-74
2022/03/02 08:18:26;;;;;;;13.18;7.95;;;10.00;99.90;;;;;;5033629;28;20108;-74
2022/03/02 08:20:54;;;;;;;15.02;8.63;;;10.10;99.90;;;;;;5033904;28;20560;-75
2022/03/02 08:23:21;;;;;;;15.82;8.77;;;10.10;99.90;;;;;;5032175;28;20371;-80
2022/03/02 08:25:57;;;;;;;11.60;8.10;;;10.20;99.90;;;;;;5033056;28;20034;-81
2022/03/02 08:28:24;;;;;;;13.80;7.82;;;10.30;99.90;;;;;;5033538;28;20026;-78
2022/03/02 08:30:51;;;;;;;14.15;7.80;;;10.30;99.90;;;;;;5032929;28;20502;-82
2022/03/02 08:33:25;;;;;;;17.02;7.97;;;10.30;99.90;;;;;;5035244;28;20029;-81
2022/03/02 08:35:51;;;;;;;17.15;8.70;;;10.30;99.90;;;;;;5034141;28;20033;-78
2022/03/02 08:38:17;;;;;;;17.27;8.07;;;10.30;99.90;;;;;;5032680;28;20036;-79
2022/03/02 08:40:44;;;;;;;13.45;7.78;;;10.50;99.90;;;;;;5031992;28;20038;-79
2022/03/02 08:43:12;;;;;;;15.32;8.07;;;10.50;99.90;;;;;;5033198;28;20466;-80
2022/03/02 08:45:38;;;;;;;16.50;9.45;;;10.50;99.90;;;;;;5032522;28;20037;-76
2022/03/02 08:48:05;;;;;;;12.73;8.43;;;10.50;99.90;;;;;;5033759;28;20098;-79
2022/03/02 08:50:31;;;;;;;15.95;8.23;;;10.60;99.90;;;;;;5032256;28;20037;-78
2022/03/02 08:52:57;;;;;;;17.50;9.18;;;10.50;99.90;;;;;;5031967;28;21323;-80
2022/03/02 08:55:31;;;;;;;16.27;9.45;;;10.50;99.90;;;;;;5032114;28;20030;-73
2022/03/02 08:57:58;;;;;;;14.60;8.98;;;10.50;99.90;;;;;;5032361;28;20061;-76
2022/03/02 09:00:24;;;;;;;16.23;9.50;;;10.60;99.90;;;;;;5026285;28;20049;-75
2022/03/02 09:02:52;;;;;;;18.13;9.98;;;10.60;99.90;;;;;;5040286;28;20781;-75
2022/03/02 09:05:19;;;;;;;21.30;9.88;;;10.70;99.90;;;;;;5032678;28;20053;-75
2022/03/02 09:07:45;;;;;;;16.83;10.30;;;10.70;99.90;;;;;;5031967;28;20418;-76
2022/03/02 09:10:11;;;;;;;14.80;9.93;;;10.70;99.90;;;;;;5031066;28;20020;-75
2022/03/02 09:12:41;;;;;;;17.58;10.18;;;10.70;99.90;;;;;;5029122;28;20056;-75
2022/03/02 09:15:10;;;;;;;17.85;10.43;;;10.60;99.90;;;;;;5033204;28;20021;-76
2022/03/02 09:17:36;;;;;;;16.60;9.57;;;10.60;99.90;;;;;;5031270;28;20123;-76
2022/03/02 09:20:03;;;;;;;19.63;10.57;;;10.80;99.90;;;;;;5031869;28;20418;-76
2022/03/02 09:22:29;;;;;;;19.98;11.05;;;10.90;99.90;;;;;;5030983;28;20028;-76
2022/03/02 09:24:57;;;;;;;16.20;10.07;;;11.00;99.90;;;;;;5027119;28;20033;-77
2022/03/02 09:27:27;;;;;;;17.25;11.18;;;11.00;99.90;;;;;;5032323;28;20029;-79
2022/03/02 09:29:57;;;;;;;16.27;10.88;;;11.10;99.90;;;;;;5030754;28;20561;-77
2022/03/02 09:32:24;;;;;;;20.30;11.60;;;11.10;99.60;;;;;;5030433;28;20496;-76
2022/03/02 09:34:57;;;;;;;19.98;10.05;;;11.20;99.80;;;;;;5032175;28;20033;-76
2022/03/02 09:37:25;;;;;;;18.88;10.80;;;11.10;99.60;;;;;;5029410;28;20385;-76
2022/03/02 09:39:52;;;;;;;18.33;10.77;;;11.30;99.90;;;;;;5025644;28;20080;-77
2022/03/02 09:42:45;;;;;;;17.13;10.40;;;11.40;99.40;;;;;;5033064;28;20494;-77
2022/03/02 09:45:12;;;;;;;14.38;10.23;;;11.50;99.60;;;;;;5032736;28;20025;-76
2022/03/02 09:47:52;;;;;;;20.30;11.15;;;11.50;99.30;;;;;;5026953;28;20041;-76
2022/03/02 09:50:19;;;;;;;14.70;10.20;;;11.60;99.90;;;;;;5031461;28;20095;-76
2022/03/02 09:52:48;;;;;;;16.92;10.75;;;11.80;99.90;;;;;;5029445;28;20033;-77
2022/03/02 09:55:21;;;;;;;19.00;10.52;;;11.90;98.50;;;;;;5027876;28;20548;-76
2022/03/02 09:57:49;;;;;;;16.55;9.90;;;11.80;98.30;;;;;;5030820;28;20040;-76
2022/03/02 10:00:18;;;;;;;15.88;10.10;;;11.80;99.30;;;;;;5033169;28;20047;-76
2022/03/02 10:02:46;;;;;;;17.85;10.30;;;11.70;99.40;;;;;;5030276;28;20556;-77
2022/03/02 10:05:18;;;;;;;15.60;10.50;;;11.70;98.80;;;;;;5026217;28;20091;-77
2022/03/02 10:07:51;;;;;;;15.85;10.43;;;11.70;99.20;;;;;;5030423;28;20040;-77
2022/03/02 10:10:23;;;;;;;17.23;11.18;;;11.50;99.90;;;;;;5029839;28;20029;-76
2022/03/02 10:12:51;;;;;;;19.98;11.40;;;11.60;99.40;;;;;;5022136;28;20063;-82
2022/03/02 10:15:24;;;;;;;18.50;11.25;;;11.70;99.70;;;;;;5028701;28;20036;-75
2022/03/02 10:17:52;;;;;;;16.73;12.23;;;11.80;99.10;;;;;;5031318;28;20056;-84
2022/03/02 10:20:22;;;;;;;18.58;12.00;;;11.80;99.30;;;;;;5028378;28;20041;-85
2022/03/02 10:23:14;;;;;;;17.15;10.30;;;11.80;99.20;;;;;;5031889;28;20180;-82
2022/03/02 10:26:08;;;;;;;17.10;10.57;;;11.90;98.90;;;;;;5031396;28;20306;-83
2022/03/02 10:28:55;;;;;;;16.48;10.38;;;11.80;99.40;;;;;;5027763;28;20116;-83
2022/03/02 10:31:45;;;;;;;20.38;9.68;;;12.00;99.40;;;;;;5019938;28;20080;-82
2022/03/02 10:34:31;;;;;;;14.77;8.80;;;11.90;98.90;;;;;;5026138;28;20040;-86
2022/03/02 10:37:13;;;;;;;16.67;8.57;;;12.00;99.40;;;;;;5024565;28;20471;-75
2022/03/02 10:39:54;;;;;;;15.77;8.75;;;11.90;99.00;;;;;;5033456;28;20018;-76
2022/03/02 10:42:31;;;;;;;15.27;9.55;;;11.90;99.00;;;;;;5030975;28;20549;-76
2022/03/02 10:45:24;;;;;;;13.45;8.70;;;12.00;99.70;;;;;;5035113;28;20033;-76
2022/03/02 10:48:02;;;;;;;14.18;9.05;;;12.00;99.00;;;;;;5032607;28;20506;-76
2022/03/02 10:50:32;;;;;;;20.30;8.90;;;12.20;99.10;;;;;;5031800;28;20090;-76
2022/03/02 10:53:01;;;;;;;18.90;9.20;;;12.20;98.70;;;;;;5031874;28;20520;-76
2022/03/02 10:55:27;;;;;;;11.95;7.70;;;12.30;98.50;;;;;;5027388;28;20390;-76
2022/03/02 10:57:55;;;;;;;14.60;8.38;;;12.30;98.60;;;;;;5027304;28;20025;-76
2022/03/02 11:00:23;;;;;;;10.15;7.07;;;12.30;98.60;;;;;;5026673;28;20033;-76
2022/03/02 11:02:57;;;;;;;12.90;7.40;;;12.30;98.30;;;;;;5043056;28;20017;-75
2022/03/02 11:05:24;;;;;;;13.60;7.35;;;12.30;98.30;;;;;;5023956;28;20032;-75
2022/03/02 11:07:50;;;;;;;11.40;6.40;;;12.20;98.00;;;;;;5027226;28;20037;-76
2022/03/02 11:10:20;;;;;;;13.75;6.65;;;12.20;98.20;;;;;;5027166;28;20032;-76
2022/03/02 11:12:48;;;;;;;12.32;6.30;;;12.30;97.60;;;;;;5028014;28;20479;-75
2022/03/02 11:15:15;;;;;;;11.60;6.60;;;12.20;98.10;;;;;;5030289;28;20026;-75
2022/03/02 11:17:53;;;;;;;10.50;6.32;;;12.50;97.40;;;;;;5025839;28;20108;-76
2022/03/02 11:20:19;;;;;;;13.98;7.00;;;12.60;97.00;;;;;;5027137;28;20046;-76
2022/03/02 11:23:00;;;;;;;11.30;5.65;;;12.70;97.00;;;;;;5028041;28;20072;-76
2022/03/02 11:26:04;;;;;;;11.15;5.97;;;12.70;96.70;;;;;;5020279;28;20056;-76
2022/03/02 11:28:30;;;;;;;11.00;5.82;;;12.70;96.30;;;;;;4997944;28;20026;-81
2022/03/02 11:31:10;;;;;;;10.70;5.90;;;12.60;96.50;;;;;;5006162;28;20039;-81
2022/03/02 11:33:36;;;;;;;13.25;5.85;;;12.50;96.40;;;;;;5006760;28;20030;-78
2022/03/02 11:36:13;;;;;;;8.45;5.45;;;12.50;96.30;;;;;;5011491;28;20125;-76
2022/03/02 11:38:44;;;;;;;12.90;6.65;;;12.50;96.30;;;;;;5010683;28;20412;-78
2022/03/02 11:41:11;;;;;;;10.45;6.05;;;12.50;96.20;;;;;;5009057;28;20053;-82
2022/03/02 11:43:41;;;;;;;11.30;6.18;;;12.80;96.10;;;;;;5008967;28;20084;-82
2022/03/02 11:46:10;;;;;;;8.25;5.25;;;12.70;95.90;;;;;;5009048;28;20030;-79
2022/03/02 11:48:42;;;;;;;10.45;5.47;;;12.60;95.20;;;;;;5011225;28;20045;-77
2022/03/02 11:51:21;;;;;;;8.15;4.90;;;12.90;95.00;;;;;;5012657;28;20129;-79
2022/03/02 11:54:09;;;;;;;9.65;4.60;;;12.80;94.60;;;;;;5011312;28;20395;-83
2022/03/02 11:56:35;;;;;;;10.32;4.88;;;12.70;94.60;;;;;;5007229;28;20030;-82
2022/03/02 11:59:05;;;;;;;9.38;5.07;;;12.60;94.60;;;;;;5009085;28;20026;-82
2022/03/02 12:01:47;;;;;;;10.52;4.90;;;12.60;94.80;;;;;;5001365;28;20128;-83
2022/03/02 12:04:16;;;;;;;10.48;5.43;;;12.60;95.00;;;;;;5021966;28;20041;-82
2022/03/02 12:06:48;;;;;;;11.02;5.28;;;12.50;94.90;;;;;;5032425;28;20040;-83
2022/03/02 12:09:26;;;;;;;12.30;4.88;;;12.50;94.80;;;;;;5034512;28;20029;-83
2022/03/02 12:12:05;;;;;;;9.60;5.07;;;12.50;95.00;;;;;;5033148;28;20419;-81
2022/03/02 12:14:49;;;;;;;11.50;5.43;;;12.60;95.10;;;;;;5028949;28;20025;-81
2022/03/02 12:17:23;;;;;;;8.50;5.18;;;12.50;95.10;;;;;;5030813;28;20037;-81
2022/03/02 12:19:58;;;;;;;7.93;5.18;;;12.40;95.60;;;;;;5030276;28;20029;-81
2022/03/02 12:22:31;;;;;;;9.63;5.03;;;12.40;96.00;;;;;;5030840;28;20038;-81
2022/03/02 12:24:58;;;;;;;9.50;5.70;;;12.40;96.00;;;;;;5031095;28;20037;-81
2022/03/02 12:27:24;;;;;;;8.10;4.93;;;12.40;95.60;;;;;;5033968;28;20026;-74
2022/03/02 12:30:13;;;;;;;11.88;5.25;;;12.40;95.80;;;;;;5031810;28;20091;-75
2022/03/02 12:32:42;;;;;;;8.68;4.90;;;12.50;95.70;;;;;;5027366;28;20041;-75
2022/03/02 12:35:13;;;;;;;8.23;4.70;;;12.50;94.90;;;;;;5030952;28;20040;-75
2022/03/02 12:37:40;;;;;;;14.50;5.70;;;12.60;94.90;;;;;;5031114;28;20439;-75
2022/03/02 12:40:11;;;;;;;9.63;5.28;;;12.60;95.00;;;;;;5030784;28;20030;-74
2022/03/02 12:42:42;;;;;;;7.72;5.20;;;12.60;94.80;;;;;;5032260;28;20274;-74
2022/03/02 12:45:13;;;;;;;10.75;5.30;;;12.50;94.70;;;;;;5032532;28;20022;-75
2022/03/02 12:47:39;;;;;;;9.95;5.25;;;12.50;95.10;;;;;;5027763;28;20033;-75